createdAt,value
2019-05-10T00:01:26.234Z,10.03
2019-05-10T00:04:13.063Z,9.43
2019-05-10T00:06:59.493Z,9.50
2019-05-10T00:09:26.053Z,9.03
2019-05-10T00:12:00.978Z,9.70
2019-05-10T00:14:49.281Z,9.70
2019-05-10T00:17:16.914Z,8.93
2019-05-10T00:19:43.573Z,9.40
2019-05-10T00:22:11.118Z,9.13
2019-05-10T00:24:37.777Z,9.50
2019-05-10T00:27:04.926Z,9.20
2019-05-10T00:29:31.894Z,9.30
2019-05-10T00:31:58.443Z,8.43
2019-05-10T00:34:25.078Z,8.47
2019-05-10T00:36:51.646Z,8.80
2019-05-10T00:39:19.500Z,7.97
2019-05-10T00:41:46.343Z,9.00
2019-05-10T00:44:12.869Z,8.47
2019-05-10T00:46:39.473Z,8.10
2019-05-10T00:49:06.206Z,8.30
2019-05-10T00:51:32.875Z,8.53
2019-05-10T00:53:59.729Z,8.50
2019-05-10T00:56:27.969Z,8.80
2019-05-10T00:58:54.703Z,9.90
2019-05-10T01:01:21.369Z,8.77
2019-05-10T01:03:48.155Z,9.87
2019-05-10T01:06:14.703Z,9.50
2019-05-10T01:08:41.232Z,9.43
2019-05-10T01:11:07.892Z,8.60
2019-05-10T01:13:36.126Z,9.70
2019-05-10T01:16:03.686Z,9.73
2019-05-10T01:18:31.923Z,8.70
2019-05-10T01:21:00.199Z,9.60
2019-05-10T01:23:28.439Z,9.50
2019-05-10T01:25:55.002Z,10.00
2019-05-10T01:28:21.528Z,10.03
2019-05-10T01:30:48.242Z,9.97
2019-05-10T01:33:14.939Z,9.80
2019-05-10T01:35:42.171Z,9.80
2019-05-10T01:38:08.746Z,10.47
2019-05-10T01:40:35.587Z,9.60
2019-05-10T01:43:03.287Z,10.13
2019-05-10T01:45:29.993Z,9.87
2019-05-10T01:47:56.993Z,9.40
2019-05-10T01:50:23.722Z,9.80
2019-05-10T01:52:50.489Z,9.33
2019-05-10T01:55:17.125Z,10.07
2019-05-10T01:57:43.799Z,9.70
2019-05-10T02:00:12.637Z,10.07
2019-05-10T02:02:40.898Z,10.13
2019-05-10T02:05:07.996Z,11.07
2019-05-10T02:07:34.737Z,10.67
2019-05-10T02:10:02.789Z,10.30
2019-05-10T02:12:29.642Z,11.03
2019-05-10T02:14:56.583Z,11.17
2019-05-10T02:17:23.250Z,11.10
2019-05-10T02:19:51.486Z,10.70
2019-05-10T02:22:18.161Z,11.13
2019-05-10T02:24:46.401Z,10.30
2019-05-10T02:27:13.041Z,9.60
2019-05-10T02:29:39.673Z,10.33
2019-05-10T02:32:06.257Z,10.27
2019-05-10T02:34:32.795Z,10.03
2019-05-10T02:36:59.332Z,9.00
2019-05-10T02:39:26.010Z,9.93
2019-05-10T02:41:52.538Z,11.57
2019-05-10T02:44:19.320Z,9.70
2019-05-10T02:46:45.976Z,9.60
2019-05-10T02:49:12.745Z,9.10
2019-05-10T02:51:39.500Z,10.37
2019-05-10T02:54:06.250Z,10.23
2019-05-10T02:56:35.111Z,9.80
2019-05-10T02:59:02.406Z,8.90
2019-05-10T03:01:29.437Z,9.77
2019-05-10T03:04:01.195Z,8.10
2019-05-10T03:06:33.128Z,8.00
2019-05-10T03:09:04.910Z,8.07
2019-05-10T03:11:35.350Z,8.87
2019-05-10T03:14:05.886Z,9.63
2019-05-10T03:16:36.020Z,8.13
2019-05-10T03:19:02.919Z,8.60
2019-05-10T03:21:33.457Z,8.70
2019-05-10T03:24:00.128Z,8.33
2019-05-10T03:26:40.793Z,8.07
2019-05-10T03:28:58.048Z,8.53
2019-05-10T03:31:24.975Z,8.03
2019-05-10T03:33:56.913Z,8.40
2019-05-10T03:36:21.574Z,8.90
2019-05-10T03:38:50.050Z,8.30
2019-05-10T03:41:16.688Z,8.83
2019-05-10T03:43:43.648Z,8.50
2019-05-10T03:46:11.223Z,8.70
2019-05-10T03:48:38.182Z,9.07
2019-05-10T03:51:04.920Z,9.23
2019-05-10T03:53:31.561Z,9.03
2019-05-10T03:55:59.823Z,8.90
2019-05-10T03:58:26.662Z,8.10
2019-05-10T04:00:54.942Z,8.60
2019-05-10T04:03:21.572Z,9.13
2019-05-10T04:05:48.351Z,9.30
2019-05-10T04:08:14.975Z,9.47
2019-05-10T04:10:41.935Z,9.93
2019-05-10T04:13:08.582Z,9.97
2019-05-10T04:15:35.345Z,9.43
2019-05-10T04:18:01.970Z,9.50
2019-05-10T04:20:28.654Z,8.73
2019-05-10T04:22:55.381Z,8.97
2019-05-10T04:25:22.147Z,9.50
2019-05-10T04:27:50.446Z,10.00
2019-05-10T04:30:18.209Z,9.83
2019-05-10T04:32:46.583Z,9.10
2019-05-10T04:35:14.835Z,10.10
2019-05-10T04:37:42.493Z,9.70
2019-05-10T04:40:09.623Z,9.90
2019-05-10T04:42:36.282Z,9.27
2019-05-10T04:45:05.120Z,9.67
2019-05-10T04:47:31.681Z,10.00
2019-05-10T04:49:58.334Z,9.73
2019-05-10T04:52:24.989Z,10.07
2019-05-10T04:54:51.522Z,10.30
2019-05-10T04:57:18.090Z,10.43
2019-05-10T04:59:44.627Z,10.63
2019-05-10T05:02:11.193Z,10.47
2019-05-10T05:04:37.723Z,9.87
2019-05-10T05:07:04.425Z,10.33
2019-05-10T05:09:32.665Z,10.60
2019-05-10T05:11:59.333Z,10.20
2019-05-10T05:14:25.971Z,11.23
2019-05-10T05:16:52.535Z,10.63
2019-05-10T05:19:19.073Z,11.80
2019-05-10T05:21:45.849Z,10.77
2019-05-10T05:24:16.851Z,11.60
2019-05-10T05:26:40.769Z,12.07
2019-05-10T05:29:07.439Z,13.10
2019-05-10T05:31:33.966Z,12.17
2019-05-10T05:34:04.784Z,12.40
2019-05-10T05:36:28.978Z,12.90
2019-05-10T05:38:55.554Z,13.00
2019-05-10T05:41:22.152Z,12.23
2019-05-10T05:43:48.863Z,13.50
2019-05-10T05:46:15.665Z,13.07
2019-05-10T05:48:42.361Z,12.27
2019-05-10T05:51:09.093Z,13.00
2019-05-10T05:53:42.230Z,14.27
2019-05-10T05:56:12.635Z,12.30
2019-05-10T05:58:38.098Z,13.20
2019-05-10T06:01:01.408Z,14.67
2019-05-10T06:03:29.666Z,14.17
2019-05-10T06:05:56.307Z,13.70
2019-05-10T06:08:24.935Z,13.97
2019-05-10T06:10:57.593Z,13.70
2019-05-10T06:13:23.358Z,15.13
2019-05-10T06:15:48.001Z,14.43
2019-05-10T06:18:14.588Z,14.83
2019-05-10T06:20:44.336Z,14.67
2019-05-10T06:23:09.542Z,15.40
2019-05-10T06:25:42.165Z,14.50
2019-05-10T06:28:17.465Z,14.70
2019-05-10T06:30:33.959Z,13.70
2019-05-10T06:33:11.494Z,14.13
2019-05-10T06:35:29.059Z,14.70
2019-05-10T06:37:55.593Z,15.20
2019-05-10T06:40:33.242Z,15.00
2019-05-10T06:42:50.806Z,15.10
2019-05-10T06:45:17.674Z,16.13
2019-05-10T06:47:47.567Z,16.17
2019-05-10T06:50:12.987Z,15.80
2019-05-10T06:52:39.720Z,15.93
2019-05-10T06:55:06.793Z,15.40
2019-05-10T06:57:33.328Z,16.47
2019-05-10T07:00:06.034Z,16.20
2019-05-10T07:02:32.335Z,15.57
2019-05-10T07:04:56.686Z,16.70
2019-05-10T07:07:42.640Z,14.60
2019-05-10T07:10:06.717Z,15.63
2019-05-10T07:12:21.138Z,14.90
2019-05-10T07:14:47.693Z,16.83
2019-05-10T07:17:14.226Z,17.77
2019-05-10T07:19:46.192Z,17.63
2019-05-10T07:22:09.421Z,16.50
2019-05-10T07:24:36.049Z,15.80
2019-05-10T07:27:05.606Z,16.30
2019-05-10T07:29:42.131Z,17.13
2019-05-10T07:32:01.349Z,18.43
2019-05-10T07:34:27.881Z,16.97
2019-05-10T07:36:54.549Z,17.17
2019-05-10T07:39:21.190Z,17.50
2019-05-10T07:41:47.865Z,18.00
2019-05-10T07:44:14.391Z,16.30
2019-05-10T07:46:46.492Z,17.13
2019-05-10T07:49:09.389Z,17.93
2019-05-10T07:51:36.071Z,18.23
2019-05-10T07:54:04.599Z,18.57
2019-05-10T07:56:31.146Z,17.43
2019-05-10T07:59:00.545Z,18.60
2019-05-10T08:01:32.363Z,19.90
2019-05-10T08:03:54.479Z,19.80
2019-05-10T08:06:21.038Z,19.83
2019-05-10T08:08:49.654Z,21.47
2019-05-10T08:11:15.969Z,20.13
2019-05-10T08:13:42.603Z,18.73
2019-05-10T08:16:11.924Z,19.83
2019-05-10T08:18:41.986Z,18.17
2019-05-10T08:21:20.846Z,17.57
2019-05-10T08:23:34.909Z,17.07
2019-05-10T08:26:04.474Z,16.63
2019-05-10T08:28:34.227Z,17.97
2019-05-10T08:30:59.123Z,17.73
2019-05-10T08:33:25.872Z,18.20
2019-05-10T08:36:00.545Z,16.60
2019-05-10T08:38:21.967Z,16.40
2019-05-10T08:40:48.734Z,16.47
2019-05-10T08:43:16.910Z,16.43
2019-05-10T08:45:47.761Z,15.03
2019-05-10T08:48:12.741Z,17.13
2019-05-10T08:50:49.501Z,17.30
2019-05-10T08:53:10.958Z,17.83
2019-05-10T08:55:36.434Z,18.47
2019-05-10T08:58:03.200Z,18.33
2019-05-10T09:00:45.044Z,19.83
2019-05-10T09:03:01.029Z,19.10
2019-05-10T09:05:28.991Z,22.87
2019-05-10T09:07:54.997Z,21.00
2019-05-10T09:10:22.135Z,23.70
2019-05-10T09:12:54.388Z,23.73
2019-05-10T09:15:17.252Z,26.20
2019-05-10T09:17:44.021Z,24.40
2019-05-10T09:20:20.457Z,24.53
2019-05-10T09:22:42.225Z,25.07
2019-05-10T09:25:08.657Z,24.83
2019-05-10T09:27:35.259Z,23.73
2019-05-10T09:30:03.150Z,23.70
2019-05-10T09:32:32.846Z,24.27
2019-05-10T09:34:59.737Z,24.60
2019-05-10T09:37:26.434Z,25.07
2019-05-10T09:40:04.242Z,26.27
2019-05-10T09:42:26.757Z,25.10
2019-05-10T09:44:49.995Z,27.33
2019-05-10T09:47:17.330Z,27.13
2019-05-10T09:49:46.900Z,27.37
2019-05-10T09:52:14.953Z,28.53
2019-05-10T09:54:42.712Z,29.30
2019-05-10T09:57:10.150Z,30.60
2019-05-10T09:59:36.941Z,30.07
2019-05-10T10:02:05.105Z,31.33
2019-05-10T10:04:31.901Z,32.03
2019-05-10T10:06:58.454Z,32.23
2019-05-10T10:09:33.809Z,29.83
2019-05-10T10:11:57.633Z,32.80
2019-05-10T10:14:21.725Z,29.30
2019-05-10T10:16:57.858Z,30.20
2019-05-10T10:19:18.140Z,31.37
2019-05-10T10:21:47.581Z,27.93
2019-05-10T10:24:19.433Z,26.87
2019-05-10T10:26:44.006Z,29.40
2019-05-10T10:29:11.405Z,28.67
2019-05-10T10:31:50.922Z,27.93
2019-05-10T10:34:07.828Z,28.80
2019-05-10T10:36:40.361Z,28.67
2019-05-10T10:39:07.434Z,23.83
2019-05-10T10:41:34.634Z,24.37
2019-05-10T10:44:01.423Z,24.40
2019-05-10T10:46:28.177Z,22.80
2019-05-10T10:48:54.776Z,23.63
2019-05-10T10:51:21.427Z,24.90
2019-05-10T10:53:47.885Z,25.07
2019-05-10T10:56:14.562Z,18.40
2019-05-10T10:58:41.707Z,16.40
2019-05-10T11:01:19.933Z,15.70
2019-05-10T11:03:36.716Z,14.57
2019-05-10T11:06:03.381Z,13.33
2019-05-10T11:08:33.173Z,10.63
2019-05-10T11:11:01.212Z,10.20
2019-05-10T11:13:41.546Z,9.67
2019-05-10T11:15:58.867Z,7.93
2019-05-10T11:18:27.363Z,8.80
2019-05-10T11:20:54.240Z,8.53
2019-05-10T11:23:26.859Z,8.43
2019-05-10T11:25:55.111Z,9.50
2019-05-10T11:28:20.525Z,10.20
2019-05-10T11:30:46.849Z,9.10
2019-05-10T11:33:26.079Z,8.83
2019-05-10T11:35:42.453Z,8.63
2019-05-10T11:38:12.721Z,9.10
2019-05-10T11:40:41.918Z,9.13
2019-05-10T11:43:08.801Z,9.70
2019-05-10T11:45:36.781Z,10.00
2019-05-10T11:48:03.413Z,10.80
2019-05-10T11:50:34.556Z,10.60
2019-05-10T11:53:00.890Z,11.33
2019-05-10T11:55:26.879Z,12.10
2019-05-10T11:58:01.898Z,13.00
2019-05-10T12:00:29.268Z,12.30
2019-05-10T12:03:11.362Z,11.30
2019-05-10T12:05:22.783Z,11.93
2019-05-10T12:07:54.165Z,14.37
2019-05-10T12:10:24.280Z,12.97
2019-05-10T12:13:01.851Z,13.70
2019-05-10T12:15:15.534Z,11.03
2019-05-10T12:17:47.613Z,12.60
2019-05-10T12:20:17.027Z,12.87
2019-05-10T12:22:47.188Z,13.00
2019-05-10T12:25:31.990Z,12.40
2019-05-10T12:27:45.073Z,14.57
2019-05-10T12:30:11.651Z,13.57
2019-05-10T12:32:54.606Z,15.70
2019-05-10T12:35:07.050Z,17.40
2019-05-10T12:37:33.825Z,9.10
2019-05-10T12:40:08.630Z,7.57
2019-05-10T12:42:28.818Z,8.27
2019-05-10T12:44:56.122Z,7.30
2019-05-10T12:47:22.815Z,7.50
2019-05-10T12:49:55.078Z,8.00
2019-05-10T12:52:17.909Z,8.67
2019-05-10T12:54:44.542Z,9.47
2019-05-10T12:57:11.206Z,8.40
2019-05-10T12:59:37.746Z,7.90
2019-05-10T13:02:10.773Z,8.53
2019-05-10T13:04:40.508Z,6.97
2019-05-10T13:07:03.132Z,7.40
2019-05-10T13:09:40.098Z,7.07
2019-05-10T13:12:04.016Z,7.20
2019-05-10T13:14:29.258Z,7.67
2019-05-10T13:16:56.100Z,7.00
2019-05-10T13:19:22.646Z,6.27
2019-05-10T13:21:53.626Z,6.60
2019-05-10T13:24:17.745Z,7.70
2019-05-10T13:26:46.027Z,6.83
2019-05-10T13:29:12.693Z,6.70
2019-05-10T13:31:42.693Z,7.00
2019-05-10T13:34:08.077Z,7.03
2019-05-10T13:36:37.245Z,6.30
2019-05-10T13:39:04.503Z,6.47
2019-05-10T13:41:31.163Z,6.03
2019-05-10T13:43:59.013Z,5.97
2019-05-10T13:46:26.270Z,7.50
2019-05-10T13:48:52.903Z,5.70
2019-05-10T13:51:19.670Z,4.77
2019-05-10T13:53:46.210Z,5.43
2019-05-10T13:56:12.771Z,5.67
2019-05-10T13:58:40.419Z,5.83
2019-05-10T14:01:13.272Z,5.30
2019-05-10T14:03:44.157Z,3.87
2019-05-10T14:06:03.879Z,4.13
2019-05-10T14:08:30.537Z,4.07
2019-05-10T14:11:01.614Z,4.07
2019-05-10T14:13:25.335Z,3.80
2019-05-10T14:15:51.871Z,3.17
2019-05-10T14:18:19.633Z,3.80
2019-05-10T14:20:46.269Z,3.33
2019-05-10T14:23:12.848Z,2.67
2019-05-10T14:25:39.886Z,3.13
2019-05-10T14:28:09.886Z,2.57
2019-05-10T14:30:35.007Z,3.00
2019-05-10T14:33:01.569Z,2.57
2019-05-10T14:35:28.302Z,2.60
2019-05-10T14:38:01.410Z,2.60
2019-05-10T14:40:30.960Z,2.70
2019-05-10T14:42:51.787Z,2.70
2019-05-10T14:45:18.318Z,3.20
2019-05-10T14:47:48.453Z,2.80
2019-05-10T14:50:19.325Z,3.23
2019-05-10T14:52:43.139Z,2.20
2019-05-10T14:55:12.852Z,2.00
2019-05-10T14:57:38.363Z,2.00
2019-05-10T15:00:05.872Z,2.27
2019-05-10T15:02:32.539Z,1.90
2019-05-10T15:05:01.477Z,2.27
2019-05-10T15:07:29.115Z,2.60
2019-05-10T15:10:00.279Z,2.50
2019-05-10T15:12:25.321Z,2.30
2019-05-10T15:14:52.099Z,2.70
2019-05-10T15:17:19.994Z,2.00
2019-05-10T15:19:56.454Z,2.00
2019-05-10T15:22:18.448Z,2.57
2019-05-10T15:24:43.739Z,2.53
2019-05-10T15:27:10.369Z,2.73
2019-05-10T15:29:37.798Z,2.83
2019-05-10T15:32:05.546Z,2.90
2019-05-10T15:34:32.168Z,2.30
2019-05-10T15:37:02.669Z,2.20
2019-05-10T15:39:28.776Z,1.50
2019-05-10T15:41:59.046Z,1.70
2019-05-10T15:44:30.256Z,2.10
2019-05-10T15:46:52.458Z,1.33
2019-05-10T15:49:23.277Z,1.70
2019-05-10T15:51:49.300Z,1.50
2019-05-10T15:54:15.861Z,1.87
2019-05-10T15:56:44.244Z,1.77
2019-05-10T15:59:12.927Z,2.50
2019-05-10T16:01:39.329Z,1.80
2019-05-10T16:04:05.909Z,1.73
2019-05-10T16:06:37.360Z,1.60
2019-05-10T16:09:02.816Z,1.50
2019-05-10T16:11:29.249Z,2.00
2019-05-10T16:14:00.159Z,1.60
2019-05-10T16:16:24.261Z,1.80
2019-05-10T16:18:51.228Z,1.50
2019-05-10T16:21:17.888Z,2.17
2019-05-10T16:23:46.712Z,1.50
2019-05-10T16:26:17.475Z,2.20
2019-05-10T16:28:42.339Z,1.63
2019-05-10T16:31:09.408Z,2.07
2019-05-10T16:33:36.043Z,1.60
2019-05-10T16:36:02.596Z,1.90
2019-05-10T16:38:29.245Z,2.00
2019-05-10T16:41:00.601Z,1.60
2019-05-10T16:43:27.005Z,1.70
2019-05-10T16:45:55.238Z,1.77
2019-05-10T16:48:21.849Z,1.80
2019-05-10T16:50:48.530Z,2.10
2019-05-10T16:53:15.145Z,1.90
2019-05-10T16:55:42.985Z,2.03
2019-05-10T16:58:15.362Z,1.93
2019-05-10T17:00:40.562Z,1.90
2019-05-10T17:03:07.317Z,2.30
2019-05-10T17:05:33.992Z,1.70
2019-05-10T17:08:00.719Z,1.67
2019-05-10T17:10:32.817Z,1.87
2019-05-10T17:12:59.676Z,1.97
2019-05-10T17:15:24.176Z,2.03
2019-05-10T17:17:50.881Z,1.90
2019-05-10T17:20:17.807Z,2.03
2019-05-10T17:22:44.490Z,2.23
2019-05-10T17:25:12.233Z,1.70
2019-05-10T17:27:38.905Z,2.20
2019-05-10T17:30:06.530Z,1.73
2019-05-10T17:32:33.502Z,2.27
2019-05-10T17:35:04.558Z,2.40
2019-05-10T17:37:29.984Z,2.37
2019-05-10T17:39:56.840Z,2.23
2019-05-10T17:42:23.512Z,2.00
2019-05-10T17:44:55.100Z,2.30
2019-05-10T17:47:18.412Z,2.37
2019-05-10T17:49:45.058Z,2.07
2019-05-10T17:52:11.566Z,2.07
2019-05-10T17:54:39.343Z,2.03
2019-05-10T17:57:10.859Z,2.30
2019-05-10T17:59:35.202Z,1.93
2019-05-10T18:02:01.837Z,2.07
2019-05-10T18:04:28.616Z,1.73
2019-05-10T18:06:55.187Z,1.70
2019-05-10T18:09:21.810Z,1.87
2019-05-10T18:11:48.484Z,2.17
2019-05-10T18:14:17.849Z,1.80
2019-05-10T18:16:47.830Z,1.97
2019-05-10T18:19:11.869Z,2.43
2019-05-10T18:21:39.065Z,1.97
2019-05-10T18:24:05.719Z,2.03
2019-05-10T18:26:34.057Z,2.00
2019-05-10T18:29:00.626Z,2.60
2019-05-10T18:31:27.179Z,2.30
2019-05-10T18:33:55.800Z,2.50
2019-05-10T18:36:24.841Z,2.37
2019-05-10T18:38:50.653Z,1.87
2019-05-10T18:41:17.205Z,2.10
2019-05-10T18:43:43.878Z,2.10
2019-05-10T18:46:10.543Z,2.30
2019-05-10T18:48:37.105Z,2.90
2019-05-10T18:51:03.645Z,2.10
2019-05-10T18:53:30.301Z,2.17
2019-05-10T18:55:56.850Z,2.30
2019-05-10T18:58:29.425Z,2.27
2019-05-10T19:00:55.979Z,5.10
2019-05-10T19:03:20.630Z,2.77
2019-05-10T19:05:47.327Z,2.50
2019-05-10T19:08:13.952Z,2.53
2019-05-10T19:10:41.285Z,2.50
2019-05-10T19:13:08.466Z,2.00
2019-05-10T19:15:35.722Z,2.47
2019-05-10T19:18:02.468Z,1.97
2019-05-10T19:20:29.093Z,2.37
2019-05-10T19:22:55.871Z,2.77
2019-05-10T19:25:22.598Z,2.77
2019-05-10T19:27:50.913Z,2.70
2019-05-10T19:30:20.073Z,2.70
2019-05-10T19:32:51.012Z,2.90
2019-05-10T19:35:15.422Z,3.03
2019-05-10T19:37:43.068Z,3.17
2019-05-10T19:40:10.471Z,3.30
2019-05-10T19:42:42.676Z,3.70
2019-05-10T19:45:06.178Z,2.80
2019-05-10T19:47:32.857Z,3.50
2019-05-10T19:49:59.427Z,3.13
2019-05-10T19:52:27.848Z,2.80
2019-05-10T19:54:54.524Z,3.03
2019-05-10T19:57:21.153Z,4.07
2019-05-10T19:59:48.631Z,3.70
2019-05-10T20:02:16.194Z,3.90
2019-05-10T20:04:42.769Z,3.63
2019-05-10T20:07:09.301Z,3.90
2019-05-10T20:09:35.984Z,3.60
2019-05-10T20:12:02.804Z,4.03
2019-05-10T20:14:29.373Z,3.80
2019-05-10T20:16:55.998Z,3.67
2019-05-10T20:19:22.764Z,4.30
2019-05-10T20:21:49.390Z,3.97
2019-05-10T20:24:16.070Z,3.60
2019-05-10T20:26:42.774Z,3.70
2019-05-10T20:29:09.476Z,4.00
2019-05-10T20:31:36.217Z,4.40
2019-05-10T20:34:03.222Z,5.00
2019-05-10T20:36:31.437Z,4.70
2019-05-10T20:39:00.867Z,3.77
2019-05-10T20:41:26.976Z,3.77
2019-05-10T20:43:53.514Z,3.47
2019-05-10T20:46:19.962Z,3.27
2019-05-10T20:48:46.597Z,3.17
2019-05-10T20:51:13.162Z,3.70
2019-05-10T20:53:40.106Z,3.70
2019-05-10T20:56:06.777Z,3.20
2019-05-10T20:58:33.713Z,3.50
2019-05-10T21:01:00.485Z,3.20
2019-05-10T21:03:26.921Z,3.43
2019-05-10T21:05:53.505Z,3.00
2019-05-10T21:08:20.067Z,3.37
2019-05-10T21:10:46.650Z,3.63
2019-05-10T21:13:13.295Z,3.27
2019-05-10T21:15:40.171Z,3.50
2019-05-10T21:18:06.863Z,3.13
2019-05-10T21:20:33.522Z,3.53
2019-05-10T21:23:00.264Z,3.37
2019-05-10T21:25:28.535Z,3.53
2019-05-10T21:27:55.262Z,3.40
2019-05-10T21:30:23.234Z,3.23
2019-05-10T21:32:49.776Z,3.80
2019-05-10T21:35:16.811Z,3.53
2019-05-10T21:37:43.346Z,3.67
2019-05-10T21:40:10.274Z,3.80
2019-05-10T21:42:36.900Z,4.10
2019-05-10T21:45:04.004Z,3.80
2019-05-10T21:47:30.779Z,3.67
2019-05-10T21:49:58.466Z,3.40
2019-05-10T21:52:25.277Z,3.33
2019-05-10T21:54:52.719Z,4.40
2019-05-10T21:57:20.028Z,3.60
2019-05-10T21:59:47.064Z,4.00
2019-05-10T22:02:14.678Z,3.73
2019-05-10T22:04:43.007Z,4.33
2019-05-10T22:07:10.613Z,4.10
2019-05-10T22:09:37.346Z,4.30
2019-05-10T22:12:05.415Z,3.80
2019-05-10T22:14:32.258Z,3.60
2019-05-10T22:16:58.922Z,3.50
2019-05-10T22:19:26.096Z,3.20
2019-05-10T22:21:55.313Z,4.00
2019-05-10T22:24:21.806Z,3.70
2019-05-10T22:26:48.582Z,3.93
2019-05-10T22:29:15.289Z,4.83
2019-05-10T22:31:41.913Z,5.30
2019-05-10T22:34:08.450Z,5.20
2019-05-10T22:36:35.117Z,5.37
2019-05-10T22:39:07.421Z,4.93
2019-05-10T22:41:34.583Z,4.23
2019-05-10T22:44:02.210Z,4.70
2019-05-10T22:46:28.910Z,5.00
2019-05-10T22:48:55.544Z,4.10
2019-05-10T22:51:22.397Z,4.47
2019-05-10T22:53:59.484Z,4.03
2019-05-10T22:56:17.503Z,4.47
2019-05-10T22:58:44.250Z,4.53
2019-05-10T23:01:11.299Z,3.77
2019-05-10T23:03:39.579Z,4.53
2019-05-10T23:06:07.712Z,4.03
2019-05-10T23:12:03.563Z,4.30
2019-05-10T23:14:30.510Z,3.97
2019-05-10T23:16:58.789Z,4.30
2019-05-10T23:19:25.445Z,4.87
2019-05-10T23:21:53.673Z,4.47
2019-05-10T23:24:23.849Z,4.30
2019-05-10T23:26:50.526Z,3.80
2019-05-10T23:29:17.285Z,4.20
2019-05-10T23:31:43.917Z,3.80
2019-05-10T23:34:10.568Z,3.83
2019-05-10T23:36:38.794Z,4.80
2019-05-10T23:39:06.275Z,4.33
2019-05-10T23:41:32.920Z,4.63
2019-05-10T23:43:59.671Z,4.00
2019-05-10T23:46:26.236Z,4.30
2019-05-10T23:48:52.991Z,3.83
2019-05-10T23:51:19.822Z,4.37
2019-05-10T23:53:46.484Z,4.10
2019-05-10T23:56:13.618Z,4.20
2019-05-10T23:58:41.204Z,3.90
